Time;durP1;ratioP1;P1;durP2;ratioP2;P2;SDS_P1;SDS_P2;PMS_P1;PMS_P2;Temp;Humidity;BMP_temperature;BMP_pressure;BME280_temperature;BME280_humidity;BME280_pressure;Samples;Min_cycle;Max_cycle;Signal;HPM_P1;HPM_P2
2022/03/02 00:01:45;;;;;;;40.50;19.07;;;;;;;0.67;98.71;97248.53;5156258;27;20519;-36
2022/03/02 00:04:12;;;;;;;32.87;18.43;;;;;;;0.71;98.93;97257.69;5156170;27;20931;-37
2022/03/02 00:06:40;;;;;;;31.87;17.90;;;;;;;0.73;98.73;97253.13;5156110;27;20799;-37
2022/03/02 00:09:07;;;;;;;25.53;15.10;;;;;;;0.74;98.68;97249.50;5156004;27;20496;-37
2022/03/02 00:11:36;;;;;;;41.17;16.43;;;;;;;0.76;98.60;97241.50;5156312;27;20436;-37
2022/03/02 00:14:05;;;;;;;35.77;14.50;;;;;;;0.76;98.39;97252.78;5156229;27;20463;-38
2022/03/02 00:16:33;;;;;;;19.03;13.00;;;;;;;0.76;98.43;97239.72;5155902;27;20947;-38
2022/03/02 00:19:00;;;;;;;18.20;10.63;;;;;;;0.71;97.93;97228.94;5155849;27;20455;-38
2022/03/02 00:21:28;;;;;;;22.87;12.07;;;;;;;0.77;98.12;97232.69;5155821;27;20440;-37
2022/03/02 00:23:55;;;;;;;39.97;19.70;;;;;;;0.77;98.19;97233.50;5156184;27;20441;-37
2022/03/02 00:26:23;;;;;;;33.63;18.23;;;;;;;0.80;98.31;97222.72;5156585;27;20432;-38
2022/03/02 00:28:51;;;;;;;26.73;14.00;;;;;;;0.79;98.62;97221.06;5156007;27;20484;-37
2022/03/02 00:31:19;;;;;;;20.27;12.43;;;;;;;0.63;98.59;97205.41;5155658;27;20442;-38
2022/03/02 00:33:46;;;;;;;24.30;14.37;;;;;;;0.72;98.93;97221.91;5155652;27;20487;-37
2022/03/02 00:36:14;;;;;;;27.27;12.73;;;;;;;0.76;99.19;97216.19;5155924;27;20463;-37
2022/03/02 00:38:41;;;;;;;22.47;13.33;;;;;;;0.78;99.14;97213.41;5155911;27;20441;-36
2022/03/02 00:41:08;;;;;;;22.00;11.10;;;;;;;0.77;99.36;97212.56;5155882;27;20779;-37
2022/03/02 00:43:35;;;;;;;26.80;12.90;;;;;;;0.76;99.56;97210.16;5155734;27;20474;-37
2022/03/02 00:46:04;;;;;;;26.67;13.73;;;;;;;0.76;99.82;97210.16;5154943;27;20870;-37
2022/03/02 00:48:32;;;;;;;23.67;13.20;;;;;;;0.76;99.61;97197.06;5156490;27;20486;-37
2022/03/02 00:51:00;;;;;;;20.00;11.73;;;;;;;0.75;99.46;97198.88;5155395;27;20935;-37
2022/03/02 00:53:27;;;;;;;24.70;13.40;;;;;;;0.72;100.00;97198.38;5155645;27;20444;-37
2022/03/02 00:55:54;;;;;;;21.70;12.60;;;;;;;0.71;100.00;97189.75;5155319;27;20447;-36
2022/03/02 00:58:22;;;;;;;26.70;12.67;;;;;;;0.72;100.00;97187.94;5155312;27;20469;-37
2022/03/02 01:00:49;;;;;;;18.57;11.57;;;;;;;0.74;100.00;97199.03;5155556;27;20436;-37
2022/03/02 01:03:18;;;;;;;24.83;12.10;;;;;;;0.75;100.00;97185.81;5155253;27;20965;-37
2022/03/02 01:05:45;;;;;;;27.17;13.17;;;;;;;0.63;100.00;97157.56;5155174;27;20442;-37
2022/03/02 01:08:12;;;;;;;33.87;14.00;;;;;;;0.80;100.00;97186.13;5154972;27;20517;-37
2022/03/02 01:10:40;;;;;;;28.07;13.20;;;;;;;0.78;100.00;97182.06;5155122;27;20532;-37
2022/03/02 01:13:07;;;;;;;27.57;14.00;;;;;;;0.78;100.00;97175.03;5155112;27;20447;-37
2022/03/02 01:15:34;;;;;;;23.50;12.43;;;;;;;0.78;100.00;97176.81;5155417;27;20447;-37
2022/03/02 01:18:01;;;;;;;28.10;11.57;;;;;;;0.76;100.00;97174.38;5155358;27;20440;-36
2022/03/02 01:20:30;;;;;;;20.60;12.07;;;;;;;0.77;100.00;97164.72;5155864;27;20920;-35
2022/03/02 01:22:57;;;;;;;23.50;12.30;;;;;;;0.76;100.00;97170.94;5155261;27;20832;-36
2022/03/02 01:25:25;;;;;;;29.07;13.50;;;;;;;0.73;100.00;97164.25;5154954;27;20436;-37
2022/03/02 01:27:52;;;;;;;16.87;10.57;;;;;;;0.69;100.00;97157.72;5155301;27;20440;-37
2022/03/02 01:30:20;;;;;;;16.50;12.13;;;;;;;0.72;100.00;97162.59;5154891;27;20479;-37
2022/03/02 01:32:48;;;;;;;21.13;11.37;;;;;;;0.68;100.00;97166.53;5155272;27;20464;-37
2022/03/02 01:35:15;;;;;;;20.53;12.03;;;;;;;0.69;99.98;97168.16;5154808;27;20443;-37
2022/03/02 01:37:44;;;;;;;24.33;11.73;;;;;;;0.68;99.99;97171.75;5155238;27;20445;-37
2022/03/02 01:40:11;;;;;;;15.37;9.17;;;;;;;0.55;99.88;97147.91;5155170;27;20445;-37
2022/03/02 01:42:38;;;;;;;27.17;12.53;;;;;;;0.67;99.82;97164.06;5155201;27;20444;-37
2022/03/02 01:45:07;;;;;;;19.20;10.67;;;;;;;0.58;99.73;97160.66;5154851;27;20448;-37
2022/03/02 01:47:35;;;;;;;15.63;10.20;;;;;;;0.51;99.84;97160.47;5154814;27;20442;-37
2022/03/02 01:50:04;;;;;;;23.33;11.93;;;;;;;0.49;100.00;97156.41;5155025;27;20480;-37
2022/03/02 01:52:31;;;;;;;19.77;10.63;;;;;;;0.55;100.00;97156.56;5154672;27;20436;-37
2022/03/02 01:55:00;;;;;;;24.67;11.20;;;;;;;0.54;100.00;97160.19;5154650;27;20440;-37
2022/03/02 01:57:28;;;;;;;26.00;14.10;;;;;;;0.63;99.92;97158.38;5155794;27;20931;-38
2022/03/02 01:59:55;;;;;;;17.17;10.17;;;;;;;0.60;99.94;97154.31;5158638;27;20432;-37
2022/03/02 02:02:22;;;;;;;19.33;11.33;;;;;;;0.62;99.83;97156.72;5158921;27;20447;-37
2022/03/02 02:04:50;;;;;;;19.43;9.57;;;;;;;0.65;99.26;97155.59;5158845;27;20440;-37
2022/03/02 02:07:17;;;;;;;26.20;11.77;;;;;;;0.61;98.83;97149.88;5158509;27;20444;-37
2022/03/02 02:09:44;;;;;;;26.47;12.23;;;;;;;0.60;98.93;97141.22;5158409;27;20991;-37
2022/03/02 02:12:13;;;;;;;20.30;12.27;;;;;;;0.56;99.10;97141.69;5158808;27;20446;-37
2022/03/02 02:14:40;;;;;;;22.60;11.90;;;;;;;0.54;99.36;97138.47;5158318;27;20436;-37
2022/03/02 02:17:07;;;;;;;23.80;12.60;;;;;;;0.53;99.30;97132.41;5158655;27;20941;-37
2022/03/02 02:19:35;;;;;;;22.90;13.30;;;;;;;0.48;99.20;97128.66;5158654;27;20447;-37
2022/03/02 02:22:04;;;;;;;33.93;15.00;;;;;;;0.46;99.45;97136.66;5158185;27;20444;-37
2022/03/02 02:24:32;;;;;;;27.07;13.80;;;;;;;0.43;100.00;97133.53;5158460;27;20440;-37
2022/03/02 02:26:59;;;;;;;30.30;15.33;;;;;;;0.50;99.83;97142.38;5158338;27;20451;-37
2022/03/02 02:29:29;;;;;;;20.83;12.50;;;;;;;0.50;100.00;97131.94;5158020;27;20488;-37
2022/03/02 02:31:57;;;;;;;25.57;13.57;;;;;;;0.54;100.00;97133.25;5158041;27;20451;-36
2022/03/02 02:34:24;;;;;;;30.63;15.17;;;;;;;0.59;100.00;97130.94;5158281;27;20436;-36
2022/03/02 02:36:52;;;;;;;27.33;16.00;;;;;;;0.63;100.00;97126.19;5158063;27;20442;-36
2022/03/02 02:39:21;;;;;;;30.37;14.20;;;;;;;0.53;100.00;97095.00;5158168;27;20445;-36
2022/03/02 02:41:48;;;;;;;29.93;12.90;;;;;;;0.52;99.64;97122.94;5157874;27;20440;-37
2022/03/02 02:44:15;;;;;;;36.70;13.97;;;;;;;0.57;100.00;97115.41;5157838;27;20444;-36
2022/03/02 02:46:43;;;;;;;38.53;14.80;;;;;;;0.59;100.00;97123.09;5157799;27;20939;-37
2022/03/02 02:49:11;;;;;;;24.20;13.63;;;;;;;0.59;99.99;97123.91;5157659;27;20480;-36
2022/03/02 02:51:39;;;;;;;20.37;11.70;;;;;;;0.61;99.90;97113.28;5157997;27;20480;-36
2022/03/02 02:54:06;;;;;;;22.73;13.20;;;;;;;0.60;99.57;97114.25;5157953;27;20444;-36
2022/03/02 02:56:35;;;;;;;26.53;16.00;;;;;;;0.62;98.99;97114.91;5158483;27;20436;-36
2022/03/02 02:59:03;;;;;;;22.53;14.67;;;;;;;0.65;99.53;97111.19;5157536;27;20436;-36
2022/03/02 03:01:30;;;;;;;24.53;12.80;;;;;;;0.67;99.16;97112.63;5157435;27;20444;-36
2022/03/02 03:03:58;;;;;;;38.20;15.70;;;;;;;0.69;98.81;97105.44;5157424;27;20912;-36
2022/03/02 03:06:25;;;;;;;33.93;15.67;;;;;;;0.71;98.37;97111.31;5157768;27;20440;-36
2022/03/02 03:08:53;;;;;;;34.23;16.27;;;;;;;0.68;97.98;97109.03;5156552;27;20525;-36
2022/03/02 03:11:20;;;;;;;34.40;16.80;;;;;;;0.70;98.14;97101.03;5157654;27;20519;-36
2022/03/02 03:13:49;;;;;;;23.87;14.20;;;;;;;0.70;97.92;97101.84;5157533;27;20436;-36
2022/03/02 03:16:16;;;;;;;26.83;13.97;;;;;;;0.70;97.92;97107.06;5157248;27;20950;-37
2022/03/02 03:18:43;;;;;;;29.70;16.77;;;;;;;0.71;97.86;97098.25;5157166;27;20451;-36
2022/03/02 03:21:10;;;;;;;38.43;17.10;;;;;;;0.69;97.71;97099.38;5157067;27;20814;-36
2022/03/02 03:23:38;;;;;;;29.00;14.40;;;;;;;0.67;97.40;97096.97;5157062;27;20440;-36
2022/03/02 03:26:05;;;;;;;26.33;12.03;;;;;;;0.62;96.97;97094.00;5156995;27;20445;-36
2022/03/02 03:28:32;;;;;;;26.07;15.10;;;;;;;0.62;97.11;97088.78;5156920;27;20440;-36
2022/03/02 03:31:01;;;;;;;36.87;17.80;;;;;;;0.62;97.21;97088.78;5156823;27;20999;-36
2022/03/02 03:33:28;;;;;;;28.43;13.40;;;;;;;0.59;96.97;97089.13;5156772;27;20947;-36
2022/03/02 03:35:55;;;;;;;32.13;14.17;;;;;;;0.57;97.42;97094.50;5156785;27;20440;-36
2022/03/02 03:38:23;;;;;;;27.67;14.80;;;;;;;0.55;96.94;97083.41;5157006;27;20441;-36
2022/03/02 03:40:50;;;;;;;22.63;13.77;;;;;;;0.54;97.58;97081.78;5156744;27;20440;-36
2022/03/02 03:43:17;;;;;;;33.90;16.70;;;;;;;0.54;97.84;97075.75;5156930;27;20467;-36
2022/03/02 03:45:44;;;;;;;61.33;24.20;;;;;;;0.50;97.46;97071.84;5156538;27;20469;-36
2022/03/02 03:48:13;;;;;;;88.70;35.60;;;;;;;0.49;97.53;97078.03;5156507;27;20448;-36
2022/03/02 03:50:40;;;;;;;27.27;14.13;;;;;;;0.49;97.50;97067.56;5156716;27;20534;-36
2022/03/02 03:53:10;;;;;;;35.87;14.57;;;;;;;0.49;97.68;97078.03;5156475;27;20451;-35
2022/03/02 03:55:38;;;;;;;18.10;10.80;;;;;;;0.45;97.51;97077.53;5156324;27;20493;-35
2022/03/02 03:58:06;;;;;;;22.47;14.20;;;;;;;0.48;97.25;97071.19;5156360;27;20479;-35
2022/03/02 04:00:33;;;;;;;29.73;14.83;;;;;;;0.49;96.82;97072.81;5156223;27;20927;-36
2022/03/02 04:03:01;;;;;;;25.80;13.10;;;;;;;0.50;97.00;97079.69;5156185;27;20436;-35
2022/03/02 04:05:29;;;;;;;18.27;11.30;;;;;;;0.46;96.65;97075.75;5156199;27;20437;-36
2022/03/02 04:07:57;;;;;;;21.33;12.20;;;;;;;0.40;96.89;97064.16;5156164;27;20467;-36
2022/03/02 04:10:24;;;;;;;20.03;11.10;;;;;;;0.48;96.94;97071.19;5156036;27;20483;-36
2022/03/02 04:12:51;;;;;;;39.97;18.67;;;;;;;0.48;96.58;97065.97;5156068;27;20447;-36
2022/03/02 04:15:18;;;;;;;35.93;16.53;;;;;;;0.46;97.08;97063.50;5156059;27;20447;-36
2022/03/02 04:17:46;;;;;;;28.50;13.20;;;;;;;0.45;96.56;97061.03;5156262;27;20468;-36
2022/03/02 04:20:14;;;;;;;26.07;13.70;;;;;;;0.38;96.81;97053.88;5155461;27;20783;-36
2022/03/02 04:22:42;;;;;;;26.20;12.30;;;;;;;0.28;96.32;97058.47;5155912;27;20857;-36
2022/03/02 04:25:10;;;;;;;26.87;12.97;;;;;;;0.35;96.46;97062.06;5156136;27;20493;-36
2022/03/02 04:27:38;;;;;;;26.03;12.47;;;;;;;0.40;96.34;97059.75;5156106;27;20444;-36
2022/03/02 04:30:06;;;;;;;24.50;13.83;;;;;;;0.44;96.72;97057.63;5155712;27;20480;-36
2022/03/02 04:32:34;;;;;;;34.90;15.07;;;;;;;0.45;96.32;97066.28;5155683;27;20440;-36
2022/03/02 04:35:02;;;;;;;31.97;14.00;;;;;;;0.32;96.25;97041.50;5155925;27;20444;-37
2022/03/02 04:37:29;;;;;;;27.67;12.80;;;;;;;0.49;95.88;97057.13;5155601;27;20492;-36
2022/03/02 04:39:58;;;;;;;24.97;14.47;;;;;;;0.51;95.87;97049.94;5155901;27;20447;-37
2022/03/02 04:42:25;;;;;;;35.43;17.73;;;;;;;0.50;95.59;97062.19;5155495;27;20447;-37
2022/03/02 04:44:52;;;;;;;30.57;16.77;;;;;;;0.48;95.87;97066.78;5155444;27;20440;-36
2022/03/02 04:47:19;;;;;;;27.70;14.70;;;;;;;0.43;95.87;97058.63;5155719;27;20875;-36
2022/03/02 04:49:47;;;;;;;31.83;16.37;;;;;;;0.42;96.19;97035.28;5155322;27;20476;-36
2022/03/02 04:52:14;;;;;;;27.90;15.17;;;;;;;0.49;96.33;97051.91;5155677;27;20820;-37
2022/03/02 04:57:27;;;;;;;27.00;12.43;;;;;;;0.65;95.94;97056.28;5155437;27;20779;-36
2022/03/02 04:59:54;;;;;;;20.20;10.67;;;;;;;0.63;95.73;97059.06;5155619;27;20450;-37
2022/03/02 05:02:22;;;;;;;20.33;10.70;;;;;;;0.65;95.86;97051.88;5152627;27;20478;-36
2022/03/02 05:04:49;;;;;;;23.53;13.40;;;;;;;0.65;95.71;97057.09;5150478;27;20440;-36
2022/03/02 05:07:17;;;;;;;24.03;14.30;;;;;;;0.67;95.65;97054.31;5142520;27;20449;-37
2022/03/02 05:09:44;;;;;;;24.37;12.97;;;;;;;0.64;95.84;97050.22;5134174;27;20469;-36
2022/03/02 05:12:12;;;;;;;32.50;18.90;;;;;;;0.67;95.46;97049.91;5134711;27;20441;-36
2022/03/02 05:14:40;;;;;;;29.13;14.87;;;;;;;0.66;95.54;97048.25;5134673;27;20512;-37
2022/03/02 05:17:07;;;;;;;36.80;17.83;;;;;;;0.70;95.88;97054.78;5134355;27;20932;-37
2022/03/02 05:19:35;;;;;;;66.30;35.57;;;;;;;0.76;95.81;97053.31;5134315;27;20536;-37
2022/03/02 05:22:02;;;;;;;86.70;38.07;;;;;;;0.78;95.89;97052.16;5134668;27;20803;-36
2022/03/02 05:24:29;;;;;;;56.73;31.40;;;;;;;0.78;95.14;97049.56;5134624;27;20442;-36
2022/03/02 05:26:57;;;;;;;30.80;19.50;;;;;;;0.78;95.05;97060.00;5134243;27;20445;-36
2022/03/02 05:29:24;;;;;;;33.63;20.10;;;;;;;0.78;95.01;97057.38;5134290;27;20528;-36
2022/03/02 05:31:53;;;;;;;39.93;22.50;;;;;;;0.72;94.96;97045.00;5136337;27;20492;-36
2022/03/02 05:34:21;;;;;;;78.87;36.33;;;;;;;0.78;95.06;97054.78;5138391;27;20445;-36
2022/03/02 05:36:48;;;;;;;99.10;38.80;;;;;;;0.77;93.98;97050.50;5138361;27;20441;-36
2022/03/02 05:39:15;;;;;;;45.97;23.00;;;;;;;0.69;94.99;97037.50;5138351;27;20448;-36
2022/03/02 05:41:42;;;;;;;172.20;52.03;;;;;;;0.75;94.73;97042.06;5138578;27;20456;-35
2022/03/02 05:44:11;;;;;;;31.87;16.83;;;;;;;0.76;94.40;97038.44;5138172;27;20437;-35
2022/03/02 05:46:39;;;;;;;33.00;17.80;;;;;;;0.71;93.91;97045.97;5138224;27;20928;-36
2022/03/02 05:49:08;;;;;;;51.47;23.10;;;;;;;0.73;94.36;97049.25;5138141;27;20440;-36
2022/03/02 05:51:37;;;;;;;42.13;18.93;;;;;;;0.73;94.11;97033.56;5140495;27;20491;-38
2022/03/02 05:54:08;;;;;;;32.90;17.07;;;;;;;0.74;94.13;97029.16;5147063;27;20528;-38
2022/03/02 05:56:37;;;;;;;28.23;14.53;;;;;;;0.71;94.38;97039.91;5138298;27;20425;-38
2022/03/02 05:59:04;;;;;;;33.20;18.13;;;;;;;0.75;94.21;97038.59;5137856;27;20498;-38
2022/03/02 06:01:32;;;;;;;28.17;14.03;;;;;;;0.75;94.55;97036.81;5138164;27;20437;-38
2022/03/02 06:04:00;;;;;;;36.10;17.37;;;;;;;0.87;95.22;97039.06;5138092;27;20984;-39
2022/03/02 06:06:29;;;;;;;27.37;16.03;;;;;;;0.90;94.76;97038.72;5137728;27;20449;-36
2022/03/02 06:08:56;;;;;;;19.40;11.20;;;;;;;0.95;94.30;97042.47;5137252;27;21003;-37
2022/03/02 06:11:24;;;;;;;31.30;13.73;;;;;;;1.03;94.66;97041.59;5137142;27;20480;-36
2022/03/02 06:13:52;;;;;;;25.47;15.07;;;;;;;0.92;94.09;97013.22;5137857;27;20838;-37
2022/03/02 06:16:20;;;;;;;23.23;13.57;;;;;;;1.10;93.28;97039.97;5137463;27;20441;-37
2022/03/02 06:18:47;;;;;;;38.10;21.80;;;;;;;1.07;92.92;97034.25;5137368;27;20470;-36
2022/03/02 06:21:17;;;;;;;43.43;21.70;;;;;;;1.15;93.25;97037.63;5137767;27;20867;-37
2022/03/02 06:23:46;;;;;;;49.33;25.23;;;;;;;1.21;93.19;97036.97;5137346;27;20813;-36
2022/03/02 06:26:14;;;;;;;42.60;23.93;;;;;;;1.33;93.26;97045.22;5137362;27;20930;-39
2022/03/02 06:28:41;;;;;;;52.13;25.13;;;;;;;1.42;93.00;97046.03;5137482;27;20441;-36
2022/03/02 06:31:09;;;;;;;54.73;22.90;;;;;;;1.50;92.55;97055.59;5137285;27;20488;-36
2022/03/02 06:33:36;;;;;;;64.83;29.23;;;;;;;1.52;91.75;97032.69;5137569;27;20437;-36
2022/03/02 06:36:04;;;;;;;72.23;31.73;;;;;;;1.57;91.84;97041.69;5137454;27;20621;-36
2022/03/02 06:38:32;;;;;;;49.60;22.73;;;;;;;1.62;91.54;97049.81;5137465;27;20517;-36
2022/03/02 06:41:05;;;;;;;57.20;22.60;;;;;;;1.61;91.79;97042.97;5137047;27;20444;-36
2022/03/02 06:43:35;;;;;;;40.40;20.67;;;;;;;1.63;91.62;97046.22;5136566;27;20480;-37
2022/03/02 06:46:11;;;;;;;66.13;23.07;;;;;;;1.67;91.57;97032.78;5137394;27;20499;-37
2022/03/02 06:48:47;;;;;;;52.13;23.27;;;;;;;1.73;91.74;97042.56;5137413;27;20765;-37
2022/03/02 06:51:16;;;;;;;33.23;18.20;;;;;;;1.81;91.36;97034.66;5137126;27;20847;-36
2022/03/02 06:53:45;;;;;;;55.57;25.73;;;;;;;1.91;91.28;97037.81;5137136;27;20445;-37
2022/03/02 06:56:16;;;;;;;85.13;37.73;;;;;;;2.02;91.02;97034.81;5136841;27;20524;-39
2022/03/02 06:58:51;;;;;;;95.17;42.37;;;;;;;2.04;90.78;97032.81;5137102;27;20478;-39
2022/03/02 07:01:26;;;;;;;154.40;49.73;;;;;;;2.23;89.58;97041.16;5136824;27;20436;-38
2022/03/02 07:03:57;;;;;;;203.27;66.57;;;;;;;2.19;88.96;97019.75;5136695;27;20425;-39
2022/03/02 07:06:25;;;;;;;250.13;80.03;;;;;;;2.44;89.18;97033.44;5136707;27;20433;-39
2022/03/02 07:08:54;;;;;;;190.17;63.77;;;;;;;2.56;88.60;97035.59;5136348;27;20469;-38
2022/03/02 07:11:25;;;;;;;110.97;45.07;;;;;;;2.67;88.31;97030.75;5136727;27;20858;-37
2022/03/02 07:13:52;;;;;;;51.37;29.47;;;;;;;2.82;87.84;97038.63;5137174;27;20434;-38
2022/03/02 07:16:21;;;;;;;48.03;21.87;;;;;;;2.93;87.05;97028.69;5136700;27;20437;-38
2022/03/02 07:18:50;;;;;;;30.07;16.77;;;;;;;2.98;86.03;97037.63;5136384;27;20437;-38
2022/03/02 07:21:17;;;;;;;38.53;16.53;;;;;;;3.05;85.51;97035.06;5151449;27;20934;-38
2022/03/02 07:23:55;;;;;;;32.37;17.13;;;;;;;3.08;85.27;97029.47;5157045;27;20440;-37
2022/03/02 07:26:25;;;;;;;43.77;17.77;;;;;;;3.13;84.57;97032.34;5157340;27;20956;-38
2022/03/02 07:28:53;;;;;;;35.73;15.37;;;;;;;3.16;84.41;97025.91;5157208;27;20428;-39
2022/03/02 07:31:22;;;;;;;29.00;16.80;;;;;;;3.23;84.91;97019.75;5157106;27;20499;-38
2022/03/02 07:33:53;;;;;;;37.73;25.70;;;;;;;3.27;84.71;97028.09;5156838;27;20806;-37
2022/03/02 07:36:21;;;;;;;40.70;23.10;;;;;;;3.34;83.33;97020.28;5157114;27;20433;-38
2022/03/02 07:38:49;;;;;;;56.30;32.63;;;;;;;3.35;83.32;97016.66;5156689;27;20799;-38
2022/03/02 07:41:17;;;;;;;60.37;27.17;;;;;;;3.43;83.08;97027.06;5156641;27;20948;-38
2022/03/02 07:43:47;;;;;;;42.73;22.90;;;;;;;3.46;82.56;97021.41;5156961;27;20458;-38
2022/03/02 07:46:15;;;;;;;45.70;25.47;;;;;;;3.51;81.95;97016.44;5156576;27;20508;-38
2022/03/02 07:48:42;;;;;;;66.20;32.80;;;;;;;3.55;81.49;97025.56;5156540;27;20436;-38
2022/03/02 07:51:10;;;;;;;56.40;28.83;;;;;;;3.59;81.03;97020.75;5156818;27;20480;-38
2022/03/02 07:53:41;;;;;;;33.00;17.70;;;;;;;3.69;81.59;97011.56;5156444;27;20942;-38
2022/03/02 07:56:10;;;;;;;42.10;22.60;;;;;;;3.75;81.40;97010.00;5156748;27;20858;-38
2022/03/02 07:58:39;;;;;;;47.53;21.53;;;;;;;3.83;81.43;97011.69;5156467;27;20452;-38
2022/03/02 08:01:08;;;;;;;57.90;31.07;;;;;;;3.92;80.36;97009.78;5156279;27;20497;-38
2022/03/02 08:03:39;;;;;;;41.70;21.73;;;;;;;3.96;79.97;97022.34;5156088;27;20445;-38
2022/03/02 08:06:07;;;;;;;45.53;20.63;;;;;;;4.07;79.50;97024.44;5156499;27;20815;-38
2022/03/02 08:08:36;;;;;;;26.70;15.67;;;;;;;4.12;79.32;97009.94;5155843;27;20472;-38
2022/03/02 08:11:04;;;;;;;31.67;18.00;;;;;;;4.10;79.42;97008.28;5155984;27;20491;-38
2022/03/02 08:13:32;;;;;;;28.17;13.93;;;;;;;4.25;79.54;97010.03;5155991;27;20440;-38
2022/03/02 08:15:59;;;;;;;37.63;16.30;;;;;;;4.28;78.48;97004.38;5156214;27;20451;-38
2022/03/02 08:18:28;;;;;;;35.13;18.03;;;;;;;4.31;78.14;97004.81;5155993;27;20444;-38
2022/03/02 08:20:58;;;;;;;78.10;32.90;;;;;;;4.37;78.06;96998.00;5155836;27;20455;-38
2022/03/02 08:23:29;;;;;;;21.77;13.57;;;;;;;4.43;77.88;96999.84;5156090;27;20449;-38
2022/03/02 08:25:57;;;;;;;31.33;15.57;;;;;;;4.50;77.15;96990.19;5155841;27;20435;-38
2022/03/02 08:28:25;;;;;;;35.33;17.93;;;;;;;4.54;77.27;97000.31;5155668;27;20800;-38
2022/03/02 08:30:53;;;;;;;33.20;17.10;;;;;;;4.56;77.19;96996.50;5155902;27;20483;-38
2022/03/02 08:33:26;;;;;;;21.33;13.13;;;;;;;4.65;76.02;96994.53;5155875;27;20841;-38
2022/03/02 08:35:56;;;;;;;53.90;24.57;;;;;;;4.69;76.36;96985.25;5155605;27;20452;-38
2022/03/02 08:38:24;;;;;;;36.70;18.97;;;;;;;4.83;76.63;96986.91;5155780;27;20444;-37
2022/03/02 08:40:52;;;;;;;77.53;29.53;;;;;;;5.00;75.23;96986.59;5155795;27;20791;-38
2022/03/02 08:43:19;;;;;;;113.47;41.80;;;;;;;5.28;75.36;96984.69;5155329;27;20444;-38
2022/03/02 08:45:47;;;;;;;72.30;35.13;;;;;;;5.68;74.50;96984.78;5155454;27;20440;-37
2022/03/02 08:48:15;;;;;;;13.50;10.37;;;;;;;5.87;73.14;96987.63;5155426;27;20436;-38
2022/03/02 08:50:44;;;;;;;23.37;14.33;;;;;;;5.87;71.34;96980.56;5155631;27;20459;-38
2022/03/02 08:53:15;;;;;;;25.67;14.47;;;;;;;5.98;70.20;96973.91;5155688;27;20519;-37
2022/03/02 08:55:43;;;;;;;28.50;16.97;;;;;;;6.05;70.62;96977.34;5155265;27;20834;-38
2022/03/02 08:58:12;;;;;;;23.87;11.93;;;;;;;6.08;71.06;96974.28;5155265;27;20441;-38
2022/03/02 09:00:40;;;;;;;39.10;19.43;;;;;;;6.13;71.33;96960.50;5155154;27;20447;-37
2022/03/02 09:03:07;;;;;;;44.13;17.33;;;;;;;6.17;71.29;96966.97;5155179;27;20444;-38
2022/03/02 09:05:35;;;;;;;38.20;17.23;;;;;;;6.17;70.29;96966.19;5154797;27;20950;-38
2022/03/02 09:08:02;;;;;;;25.53;12.13;;;;;;;6.13;70.31;96961.31;5154962;27;20480;-38
2022/03/02 09:10:31;;;;;;;21.73;11.70;;;;;;;6.28;71.28;96962.91;5155450;27;20915;-37
2022/03/02 09:13:00;;;;;;;28.60;16.60;;;;;;;6.44;71.29;96966.97;5154962;27;20484;-37
2022/03/02 09:15:27;;;;;;;20.70;12.57;;;;;;;6.53;69.81;96961.25;5155022;27;20461;-37
2022/03/02 09:17:55;;;;;;;33.03;18.30;;;;;;;6.49;67.57;96959.25;5154965;27;20437;-38
2022/03/02 09:20:23;;;;;;;26.07;14.53;;;;;;;6.31;69.04;96949.34;5155743;27;20527;-38
2022/03/02 09:22:53;;;;;;;20.93;13.47;;;;;;;6.30;70.34;96945.06;5155554;27;20440;-38
2022/03/02 09:25:22;;;;;;;25.97;14.80;;;;;;;6.36;69.94;96946.88;5155338;27;20428;-38
2022/03/02 09:27:52;;;;;;;31.80;15.90;;;;;;;6.39;71.44;96943.84;5155482;27;20459;-38
2022/03/02 09:30:19;;;;;;;20.60;10.73;;;;;;;6.22;68.75;96943.47;5154983;27;20444;-37
2022/03/02 09:32:47;;;;;;;26.20;16.17;;;;;;;6.21;69.33;96944.47;5154849;27;20494;-38
2022/03/02 09:35:15;;;;;;;11.80;8.90;;;;;;;6.23;70.03;96939.81;5155158;27;20566;-38
2022/03/02 09:37:48;;;;;;;21.27;11.47;;;;;;;6.21;68.87;96936.56;5154831;27;20432;-37
2022/03/02 09:40:23;;;;;;;15.50;12.23;;;;;;;6.15;69.29;96927.66;5154612;27;20420;-38
2022/03/02 09:42:57;;;;;;;18.33;10.97;;;;;;;6.15;68.34;96932.94;5154781;27;20546;-38
2022/03/02 09:45:27;;;;;;;15.27;10.43;;;;;;;6.09;68.65;96928.47;5154848;27;20425;-38
2022/03/02 09:47:56;;;;;;;32.10;14.83;;;;;;;5.97;68.74;96924.81;5154844;27;20460;-38
2022/03/02 09:50:25;;;;;;;22.30;11.97;;;;;;;5.97;69.40;96927.47;5154834;27;20919;-38
2022/03/02 09:53:00;;;;;;;14.03;8.60;;;;;;;5.92;70.78;96916.69;5154593;27;20491;-37
2022/03/02 09:55:29;;;;;;;15.13;8.80;;;;;;;5.94;70.53;96909.41;5154683;27;20424;-38
2022/03/02 09:58:00;;;;;;;17.80;8.83;;;;;;;6.01;70.04;96899.69;5154622;27;20462;-38
2022/03/02 10:00:29;;;;;;;11.97;8.13;;;;;;;6.04;69.30;96920.34;5154555;27;20435;-38
2022/03/02 10:02:59;;;;;;;12.43;8.80;;;;;;;5.79;67.29;96908.81;5154865;27;20513;-37
2022/03/02 10:05:28;;;;;;;34.03;15.83;;;;;;;5.34;69.81;96899.63;5154484;27;20444;-39
2022/03/02 10:07:58;;;;;;;52.47;23.67;;;;;;;5.05;71.38;96910.50;5154409;27;20549;-38
2022/03/02 10:10:27;;;;;;;34.00;17.33;;;;;;;4.99;74.63;96906.03;5154604;27;20432;-38
2022/03/02 10:12:58;;;;;;;29.63;14.70;;;;;;;4.97;75.29;96898.34;5154389;27;20570;-38
2022/03/02 10:15:27;;;;;;;27.73;16.20;;;;;;;4.75;73.66;96878.44;5155081;27;20473;-38
2022/03/02 10:17:58;;;;;;;15.60;12.60;;;;;;;4.75;72.88;96897.63;5155025;27;20440;-38
2022/03/02 10:20:27;;;;;;;16.90;8.30;;;;;;;4.90;74.37;96889.59;5158588;27;20428;-38
2022/03/02 10:23:18;;;;;;;25.77;17.43;;;;;;;4.95;74.49;96884.56;5158136;27;20440;-38
2022/03/02 10:26:01;;;;;;;15.80;10.27;;;;;;;4.87;72.81;96888.19;5158102;27;20425;-38
2022/03/02 10:28:30;;;;;;;21.10;12.47;;;;;;;4.76;74.18;96878.25;5158231;27;20527;-38
2022/03/02 10:31:25;;;;;;;17.93;8.73;;;;;;;4.63;75.53;96875.56;5157993;27;20437;-38
2022/03/02 10:33:55;;;;;;;42.90;16.50;;;;;;;4.56;75.95;96874.69;5158057;27;20432;-38
2022/03/02 10:36:25;;;;;;;22.67;13.97;;;;;;;4.44;76.33;96866.56;5158306;27;20433;-37
2022/03/02 10:39:05;;;;;;;15.83;8.90;;;;;;;4.39;76.01;96864.53;5158298;27;20428;-38
2022/03/02 10:41:37;;;;;;;16.80;8.63;;;;;;;4.25;76.68;96857.59;5158160;27;20424;-38
2022/03/02 10:44:10;;;;;;;14.33;9.57;;;;;;;4.25;77.29;96853.13;5158942;27;20449;-37
2022/03/02 10:46:42;;;;;;;24.77;17.70;;;;;;;4.29;78.44;96848.31;5158127;27;20428;-38
2022/03/02 10:49:15;;;;;;;12.40;8.57;;;;;;;4.29;78.61;96853.56;5157678;27;20437;-38
2022/03/02 10:51:43;;;;;;;8.30;7.27;;;;;;;4.30;78.02;96850.75;5157647;27;20460;-38
2022/03/02 10:54:16;;;;;;;15.57;10.13;;;;;;;4.39;79.22;96843.50;5157920;27;20440;-37
2022/03/02 10:56:46;;;;;;;12.23;9.10;;;;;;;4.51;78.46;96841.91;5157848;27;20812;-38
2022/03/02 10:59:16;;;;;;;14.97;7.70;;;;;;;4.57;77.93;96831.63;5157602;27;20916;-37
2022/03/02 11:01:46;;;;;;;13.80;8.90;;;;;;;4.57;77.23;96823.75;5157365;27;20455;-38
2022/03/02 11:04:14;;;;;;;26.10;12.53;;;;;;;4.67;77.56;96826.81;5157410;27;20451;-38
2022/03/02 11:06:43;;;;;;;15.23;7.80;;;;;;;4.75;75.87;96812.66;5157328;27;20785;-38
2022/03/02 11:09:13;;;;;;;14.80;9.10;;;;;;;4.69;75.71;96812.47;5157056;27;20492;-37
2022/03/02 11:11:40;;;;;;;21.20;13.00;;;;;;;4.87;76.60;96811.88;5157811;27;20444;-38
2022/03/02 11:14:10;;;;;;;30.70;15.87;;;;;;;4.91;75.59;96804.41;5157560;27;20440;-37
2022/03/02 11:16:38;;;;;;;16.60;10.40;;;;;;;5.08;75.00;96770.63;5157394;27;20836;-38
2022/03/02 11:19:13;;;;;;;23.20;12.23;;;;;;;5.73;73.82;96792.66;5157430;27;20440;-38
2022/03/02 11:21:42;;;;;;;21.73;12.70;;;;;;;5.98;71.95;96788.59;5157453;27;20451;-38
2022/03/02 11:24:15;;;;;;;39.43;18.03;;;;;;;6.19;72.47;96798.06;5157241;27;20443;-38
2022/03/02 11:26:43;;;;;;;53.50;26.90;;;;;;;6.31;71.39;96788.50;5156999;27;20435;-38
2022/03/02 11:29:14;;;;;;;38.93;18.10;;;;;;;6.29;71.56;96786.06;5156618;27;20436;-38
2022/03/02 11:31:43;;;;;;;36.20;15.20;;;;;;;6.15;72.14;96785.31;5156812;27;20424;-38
2022/03/02 11:34:14;;;;;;;16.13;10.60;;;;;;;6.16;70.35;96780.84;5156883;27;20451;-38